Time;durP1;ratioP1;P1;durP2;ratioP2;P2;SDS_P1;SDS_P2;PMS_P1;PMS_P2;Temp;Humidity;BMP_temperature;BMP_pressure;BME280_temperature;BME280_humidity;BME280_pressure;Samples;Min_cycle;Max_cycle;Signal;HPM_P1;HPM_P2
2022/12/17 13:06:06;;;;;;;101.75;34.65;;;;;;;-1.63;100.00;102326.94;4991789;28;20046;-77
2022/12/17 13:08:32;;;;;;;67.53;25.23;;;;;;;-1.51;100.00;102331.34;4989607;28;20113;-77
2022/12/17 13:11:26;;;;;;;77.07;26.45;;;;;;;-1.63;100.00;102326.94;4989751;28;20038;-77
2022/12/17 13:13:56;;;;;;;89.68;32.60;;;;;;;-1.58;100.00;102325.13;4973284;28;20035;-77
2022/12/17 13:16:36;;;;;;;92.93;31.67;;;;;;;-1.53;100.00;102333.16;4986427;28;20524;-77
2022/12/17 13:19:17;;;;;;;114.75;37.03;;;;;;;-1.69;100.00;102324.28;4993036;28;20031;-77
2022/12/17 13:21:42;;;;;;;106.35;35.65;;;;;;;-1.71;100.00;102324.28;4975430;28;20046;-77
2022/12/17 13:24:21;;;;;;;111.82;37.55;;;;;;;-1.54;100.00;102321.53;5008004;28;20049;-77
2022/12/17 13:26:47;;;;;;;99.32;34.67;;;;;;;-1.54;100.00;102316.16;4988124;28;20038;-77
2022/12/17 13:29:23;;;;;;;107.07;35.35;;;;;;;-1.50;100.00;102311.66;4972030;28;20038;-77
2022/12/17 13:32:02;;;;;;;99.10;36.97;;;;;;;-1.40;100.00;102317.88;4968240;28;20038;-77
2022/12/17 13:34:33;;;;;;;112.40;37.33;;;;;;;-1.39;100.00;102314.31;5006476;28;20049;-77
2022/12/17 13:37:23;;;;;;;116.63;39.30;;;;;;;-1.45;100.00;102312.53;4991267;28;20063;-77
2022/12/17 13:40:08;;;;;;;103.47;35.42;;;;;;;-1.43;100.00;102309.84;4985511;28;20053;-77
2022/12/17 13:42:35;;;;;;;121.13;35.10;;;;;;;-1.44;100.00;102317.00;4990405;28;20121;-77
2022/12/17 13:45:01;;;;;;;100.30;33.75;;;;;;;-1.51;100.00;102312.56;4993291;28;20430;-77
2022/12/17 13:47:29;;;;;;;99.15;35.17;;;;;;;-1.43;100.00;102320.59;4988451;28;20049;-76
2022/12/17 13:49:58;;;;;;;106.63;34.80;;;;;;;-1.60;100.00;102318.88;4986553;28;20041;-77
2022/12/17 13:52:25;;;;;;;106.30;36.58;;;;;;;-1.69;100.00;102333.25;4992460;28;20038;-77
2022/12/17 13:54:51;;;;;;;95.75;33.70;;;;;;;-1.77;100.00;102327.03;4992468;28;20046;-77
2022/12/17 13:57:22;;;;;;;116.93;35.33;;;;;;;-1.83;100.00;102332.41;4989819;28;20045;-76
2022/12/17 13:59:56;;;;;;;102.10;35.22;;;;;;;-1.75;100.00;102325.22;4988804;28;20036;-77
2022/12/17 14:02:24;;;;;;;94.25;33.25;;;;;;;-1.81;100.00;102330.59;4993216;28;20061;-77
2022/12/17 14:04:52;;;;;;;109.28;36.60;;;;;;;-1.80;100.00;102331.47;4992799;28;20026;-77
2022/12/17 14:07:18;;;;;;;122.43;34.67;;;;;;;-2.03;100.00;102340.53;4990534;28;20116;-77
2022/12/17 14:09:44;;;;;;;104.93;32.42;;;;;;;-1.98;100.00;102335.13;4992399;28;20038;-78
2022/12/17 14:12:20;;;;;;;87.95;32.67;;;;;;;-2.08;100.00;102331.59;4992482;28;20096;-77
2022/12/17 14:14:50;;;;;;;105.57;33.30;;;;;;;-2.11;100.00;102321.75;4991954;28;20077;-76
2022/12/17 14:17:30;;;;;;;115.85;34.47;;;;;;;-2.10;100.00;102319.97;4975378;28;20033;-77
2022/12/17 14:19:59;;;;;;;104.10;33.58;;;;;;;-2.20;100.00;102320.88;4990764;28;20048;-77
2022/12/17 14:22:40;;;;;;;102.53;33.85;;;;;;;-2.22;100.00;102327.13;4992268;28;20040;-76
2022/12/17 14:25:14;;;;;;;100.75;32.67;;;;;;;-2.25;100.00;102339.66;4992488;28;20100;-78
2022/12/17 14:27:51;;;;;;;111.00;34.42;;;;;;;-2.36;100.00;102334.34;4988716;28;20035;-76
2022/12/17 14:30:34;;;;;;;133.02;43.33;;;;;;;-2.46;100.00;102343.28;4980451;28;20450;-76
2022/12/17 14:32:59;;;;;;;109.80;34.08;;;;;;;-2.49;100.00;102328.09;4992857;28;20069;-77
2022/12/17 14:35:30;;;;;;;151.65;51.97;;;;;;;-2.34;100.00;102339.72;4975009;28;20086;-77
2022/12/17 14:37:56;;;;;;;114.40;37.03;;;;;;;-2.48;100.00;102343.25;4987768;28;20041;-77
2022/12/17 14:40:23;;;;;;;129.13;39.10;;;;;;;-2.48;100.00;102342.38;4975073;28;20062;-78
2022/12/17 14:42:49;;;;;;;82.22;27.50;;;;;;;-2.57;100.00;102345.97;4974923;28;20397;-78
2022/12/17 14:45:15;;;;;;;99.80;32.53;;;;;;;-2.70;100.00;102352.25;4975035;28;20035;-77
2022/12/17 14:48:03;;;;;;;103.20;34.80;;;;;;;-2.55;100.00;102360.25;4978239;28;20027;-78
2022/12/17 14:50:34;;;;;;;92.05;27.02;;;;;;;-2.80;100.00;102357.59;4993749;28;20037;-77
2022/12/17 14:53:02;;;;;;;104.47;31.70;;;;;;;-2.84;100.00;102354.91;4993698;28;20125;-77
2022/12/17 14:55:38;;;;;;;115.00;35.45;;;;;;;-2.60;100.00;102360.25;4977995;28;20439;-77
2022/12/17 14:58:16;;;;;;;110.55;32.47;;;;;;;-2.62;100.00;102366.53;4977864;28;20038;-77
2022/12/17 15:00:55;;;;;;;102.18;30.63;;;;;;;-2.66;100.00;102357.56;4989744;28;20066;-77
2022/12/17 15:03:25;;;;;;;94.70;27.27;;;;;;;-2.81;100.00;102360.25;4983725;28;20034;-78
2022/12/17 15:06:03;;;;;;;105.55;32.03;;;;;;;-2.81;100.00;102366.50;4990701;28;20557;-78
2022/12/17 15:08:35;;;;;;;125.43;34.25;;;;;;;-2.75;100.00;102362.03;4993028;28;20030;-78
2022/12/17 15:11:01;;;;;;;105.43;29.60;;;;;;;-2.86;100.00;102360.25;4993561;28;20038;-77
2022/12/17 15:13:26;;;;;;;94.50;30.90;;;;;;;-2.97;100.00;102372.75;4975635;28;20049;-77
2022/12/17 15:15:52;;;;;;;72.10;23.98;;;;;;;-3.19;100.00;102382.53;4990634;28;20069;-77
2022/12/17 15:18:17;;;;;;;94.60;28.45;;;;;;;-3.09;100.00;102386.13;4991413;28;20068;-77
2022/12/17 15:20:43;;;;;;;106.43;29.58;;;;;;;-3.15;100.00;102393.25;4994129;28;20118;-77
2022/12/17 15:23:17;;;;;;;100.90;28.55;;;;;;;-3.17;100.00;102384.31;4976239;28;20092;-77
2022/12/17 15:25:44;;;;;;;119.72;32.72;;;;;;;-3.12;100.00;102388.78;4977398;28;20034;-77
2022/12/17 15:28:10;;;;;;;103.75;31.38;;;;;;;-3.17;100.00;102383.41;4996492;28;20039;-77
2022/12/17 15:30:36;;;;;;;113.57;32.90;;;;;;;-3.14;100.00;102392.34;4995092;28;20038;-77
2022/12/17 15:33:02;;;;;;;112.55;32.92;;;;;;;-3.08;100.00;102395.94;4974148;28;20447;-77
2022/12/17 15:35:28;;;;;;;126.85;33.97;;;;;;;-3.18;100.00;102387.91;5010478;28;20042;-78
2022/12/17 15:37:54;;;;;;;120.60;33.60;;;;;;;-3.15;100.00;102400.38;4993131;28;20035;-78
2022/12/17 15:40:19;;;;;;;123.90;33.95;;;;;;;-3.07;100.00;102398.63;4978514;28;20504;-78
2022/12/17 15:45:30;;;;;;;126.30;34.03;;;;;;;-3.24;100.00;102400.38;4994947;28;20104;-78
2022/12/17 15:47:56;;;;;;;97.30;29.85;;;;;;;-3.19;100.00;102393.25;4997508;28;20402;-78
2022/12/17 15:50:21;;;;;;;129.02;37.22;;;;;;;-3.12;100.00;102402.19;4996336;28;20042;-78
2022/12/17 15:52:47;;;;;;;139.73;38.17;;;;;;;-3.22;100.00;102401.25;4994563;28;20164;-78
2022/12/17 15:55:12;;;;;;;130.82;37.28;;;;;;;-3.23;100.00;102402.13;4995381;28;20089;-78
2022/12/17 15:57:37;;;;;;;143.00;37.53;;;;;;;-3.33;100.00;102403.91;4978571;28;20165;-78
2022/12/17 16:00:04;;;;;;;157.05;36.90;;;;;;;-3.32;100.00;102406.56;4995273;28;20070;-78
2022/12/17 16:02:29;;;;;;;133.40;37.70;;;;;;;-3.23;100.00;102416.44;4978884;28;20481;-78
2022/12/17 16:04:55;;;;;;;136.00;36.25;;;;;;;-3.30;100.00;102406.59;4995066;28;20043;-77
2022/12/17 16:07:20;;;;;;;133.23;35.83;;;;;;;-3.27;100.00;102417.31;4967187;28;20043;-78
2022/12/17 16:09:46;;;;;;;139.57;36.05;;;;;;;-3.29;100.00;102421.78;4977089;28;20113;-78
2022/12/17 16:12:11;;;;;;;161.38;42.67;;;;;;;-3.34;100.00;102415.50;4949449;28;20383;-79
2022/12/17 16:14:36;;;;;;;114.32;34.53;;;;;;;-3.65;100.00;102430.53;4996862;28;20042;-77
2022/12/17 16:17:02;;;;;;;184.82;35.53;;;;;;;-3.64;100.00;102425.22;4994306;28;20043;-77
2022/12/17 16:19:30;;;;;;;155.55;39.60;;;;;;;-3.73;100.00;102423.34;4976482;28;20417;-79
2022/12/17 16:21:56;;;;;;;193.77;35.83;;;;;;;-3.70;100.00;102419.81;4989387;28;20041;-77
2022/12/17 16:24:22;;;;;;;138.40;38.35;;;;;;;-3.63;100.00;102432.31;4946614;28;20027;-78
2022/12/17 16:26:47;;;;;;;174.93;42.33;;;;;;;-3.61;100.00;102433.22;4996559;28;20042;-77
2022/12/17 16:29:13;;;;;;;204.40;38.28;;;;;;;-3.75;100.00;102426.91;4998157;28;20026;-78
2022/12/17 16:31:38;;;;;;;152.45;41.30;;;;;;;-3.53;100.00;102423.44;4977142;28;20485;-78
2022/12/17 16:34:11;;;;;;;137.02;37.42;;;;;;;-3.53;100.00;102434.16;4964069;28;20544;-78
2022/12/17 16:36:37;;;;;;;140.05;33.63;;;;;;;-3.73;100.00;102422.47;4965829;28;20062;-77
2022/12/17 16:39:04;;;;;;;164.68;38.90;;;;;;;-3.60;100.00;102423.44;4993109;28;20137;-79
2022/12/17 16:41:30;;;;;;;151.65;38.70;;;;;;;-3.61;100.00;102432.34;4993461;28;20033;-78
2022/12/17 16:43:55;;;;;;;145.05;38.83;;;;;;;-3.57;100.00;102437.72;4971529;28;20038;-77
2022/12/17 16:46:32;;;;;;;128.05;36.80;;;;;;;-3.63;100.00;102436.78;4976945;28;20062;-81
2022/12/17 16:49:03;;;;;;;138.23;36.67;;;;;;;-3.74;100.00;102429.63;4969277;28;20034;-77
2022/12/17 16:51:29;;;;;;;165.07;40.53;;;;;;;-3.70;100.00;102435.88;4976392;28;20095;-77
2022/12/17 16:53:55;;;;;;;164.32;41.97;;;;;;;-3.57;100.00;102435.03;4945433;28;20066;-78
2022/12/17 16:56:23;;;;;;;163.02;40.42;;;;;;;-3.69;100.00;102426.94;4972983;28;20035;-77
2022/12/17 16:58:49;;;;;;;153.63;39.72;;;;;;;-3.74;100.00;102424.25;4992820;28;20105;-78
2022/12/17 17:01:19;;;;;;;141.23;35.80;;;;;;;-3.76;100.00;102434.03;4995315;28;20485;-78
2022/12/17 17:03:45;;;;;;;144.38;39.78;;;;;;;-3.86;100.00;102434.00;4993387;28;20049;-78
2022/12/17 17:06:11;;;;;;;154.60;41.17;;;;;;;-3.81;100.00;102434.91;4994151;28;20421;-78
2022/12/17 17:08:38;;;;;;;155.10;40.30;;;;;;;-3.77;100.00;102439.38;4973976;28;20398;-78
2022/12/17 17:11:10;;;;;;;170.43;39.05;;;;;;;-3.79;100.00;102436.69;4993796;28;20049;-77
2022/12/17 17:13:37;;;;;;;187.70;35.75;;;;;;;-3.88;100.00;102432.19;4976928;28;20046;-78
2022/12/17 17:16:03;;;;;;;186.73;36.75;;;;;;;-3.95;100.00;102425.03;4971015;28;20068;-78
2022/12/17 17:18:28;;;;;;;150.50;34.75;;;;;;;-3.80;100.00;102424.22;4994226;28;20070;-78
2022/12/17 17:20:54;;;;;;;137.77;33.88;;;;;;;-3.74;100.00;102431.38;4962296;28;20730;-79
2022/12/17 17:23:22;;;;;;;123.95;36.08;;;;;;;-3.84;100.00;102438.44;4993294;28;20093;-77
2022/12/17 17:25:47;;;;;;;213.50;36.22;;;;;;;-3.81;100.00;102433.13;4994226;28;20510;-78
2022/12/17 17:28:13;;;;;;;148.88;37.38;;;;;;;-3.87;100.00;102438.41;4980033;28;20176;-78
2022/12/17 17:30:38;;;;;;;184.13;37.13;;;;;;;-3.88;100.00;102440.22;4960100;28;20058;-77
2022/12/17 17:33:04;;;;;;;191.63;39.60;;;;;;;-3.84;100.00;102438.44;4991317;28;20046;-77
2022/12/17 17:35:29;;;;;;;270.10;36.85;;;;;;;-3.86;100.00;102439.34;4986818;28;20074;-76
2022/12/17 17:37:54;;;;;;;224.23;35.70;;;;;;;-3.95;100.00;102449.09;4991661;28;20050;-76
2022/12/17 17:40:23;;;;;;;232.82;37.45;;;;;;;-4.06;100.00;102453.47;4943105;28;20100;-77
2022/12/17 17:42:48;;;;;;;140.88;33.47;;;;;;;-4.02;100.00;102452.59;4975653;28;20077;-76
2022/12/17 17:45:14;;;;;;;147.27;36.28;;;;;;;-4.00;100.00;102448.16;4987977;28;20065;-76
2022/12/17 17:47:39;;;;;;;124.88;34.10;;;;;;;-3.90;100.00;102455.38;4980777;28;20092;-77
2022/12/17 17:50:04;;;;;;;181.85;33.83;;;;;;;-3.86;100.00;102458.06;4991843;28;20034;-77
2022/12/17 17:52:30;;;;;;;146.13;36.10;;;;;;;-3.87;100.00;102454.47;4989347;28;20061;-76
2022/12/17 17:54:55;;;;;;;121.43;36.95;;;;;;;-3.93;100.00;102452.66;4980207;28;20122;-77
2022/12/17 17:57:21;;;;;;;153.73;39.08;;;;;;;-4.01;100.00;102451.72;4975836;28;20030;-78
2022/12/17 17:59:46;;;;;;;159.85;38.90;;;;;;;-3.90;100.00;102459.84;4974032;28;20022;-77
2022/12/17 18:02:12;;;;;;;143.75;36.03;;;;;;;-3.88;100.00;102458.06;4987728;28;20041;-77
2022/12/17 18:04:38;;;;;;;155.25;38.30;;;;;;;-3.94;100.00;102442.84;4988922;28;20046;-77
2022/12/17 18:07:04;;;;;;;133.48;36.65;;;;;;;-3.91;100.00;102450.00;4990629;28;20172;-77
2022/12/17 18:09:29;;;;;;;169.95;34.15;;;;;;;-4.00;100.00;102447.25;4958923;28;20085;-77
2022/12/17 18:11:54;;;;;;;204.13;37.80;;;;;;;-4.06;100.00;102450.78;4957802;28;20034;-77
2022/12/17 18:14:23;;;;;;;227.00;35.92;;;;;;;-4.05;100.00;102457.91;4985392;28;20042;-77
2022/12/17 18:16:48;;;;;;;174.00;36.58;;;;;;;-3.99;100.00;102447.28;4976631;28;20050;-77
2022/12/17 18:19:15;;;;;;;292.65;38.65;;;;;;;-3.81;100.00;102459.00;4973375;28;20042;-77
2022/12/17 18:21:42;;;;;;;239.18;34.17;;;;;;;-3.88;100.00;102464.28;4989089;28;20410;-77
2022/12/17 18:24:22;;;;;;;151.63;34.10;;;;;;;-3.83;100.00;102466.13;4989220;28;20050;-77
2022/12/17 18:26:49;;;;;;;190.27;36.67;;;;;;;-3.77;100.00;102460.78;4992074;28;20038;-77
2022/12/17 18:29:19;;;;;;;178.68;37.65;;;;;;;-3.65;100.00;102462.66;4992705;28;20142;-78
2022/12/17 18:31:45;;;;;;;180.45;37.65;;;;;;;-3.82;100.00;102460.78;4992528;28;20069;-77
2022/12/17 18:34:16;;;;;;;125.55;31.95;;;;;;;-3.94;100.00;102469.59;4987036;28;20063;-77
2022/12/17 18:36:43;;;;;;;122.25;31.05;;;;;;;-4.17;100.00;102471.22;4984230;28;20049;-77
2022/12/17 18:39:19;;;;;;;147.05;32.88;;;;;;;-4.34;100.00;102469.28;4992322;28;20053;-77
2022/12/17 18:44:31;;;;;;;167.88;34.00;;;;;;;-4.32;100.00;102471.97;4994730;28;20042;-77
2022/12/17 18:46:57;;;;;;;156.75;34.35;;;;;;;-4.25;100.00;102473.81;4994856;28;20041;-77
2022/12/17 18:49:25;;;;;;;134.45;33.30;;;;;;;-4.20;100.00;102465.84;4985520;28;20040;-78
2022/12/17 18:51:51;;;;;;;134.57;32.75;;;;;;;-4.08;100.00;102455.25;4972652;28;20029;-77
2022/12/17 18:54:24;;;;;;;135.20;36.20;;;;;;;-3.95;100.00;102467.81;4959729;28;20030;-78
2022/12/17 18:56:52;;;;;;;141.23;34.83;;;;;;;-4.01;100.00;102461.53;4992091;28;20026;-78
2022/12/17 18:59:20;;;;;;;185.20;36.80;;;;;;;-3.98;100.00;102464.25;5002823;28;20046;-78
2022/12/17 19:01:47;;;;;;;166.88;33.88;;;;;;;-4.08;100.00;102456.13;4982519;28;20041;-78
2022/12/17 19:04:16;;;;;;;163.48;36.65;;;;;;;-4.01;100.00;102466.88;4979680;28;20042;-78
2022/12/17 19:06:42;;;;;;;177.95;40.38;;;;;;;-4.04;100.00;102462.41;4976537;28;20038;-78
2022/12/17 19:09:16;;;;;;;145.57;37.95;;;;;;;-3.91;100.00;102466.06;4996284;28;20397;-78
2022/12/17 19:11:41;;;;;;;189.15;36.75;;;;;;;-3.96;100.00;102455.31;4996471;28;20033;-78
2022/12/17 19:14:07;;;;;;;111.85;30.45;;;;;;;-3.98;100.00;102461.56;5012552;28;20046;-78
2022/12/17 19:16:32;;;;;;;120.88;29.85;;;;;;;-4.13;100.00;102471.25;4987021;28;20080;-78
2022/12/17 19:19:03;;;;;;;103.60;30.75;;;;;;;-4.21;100.00;102477.41;4998457;28;20061;-78
2022/12/17 19:21:30;;;;;;;110.82;30.92;;;;;;;-4.18;100.00;102469.41;4993650;28;20030;-78
2022/12/17 19:23:58;;;;;;;112.13;30.73;;;;;;;-4.15;100.00;102481.06;4975986;28;20042;-78
2022/12/17 19:26:25;;;;;;;119.80;32.65;;;;;;;-4.19;100.00;102476.53;4997493;28;20406;-78
2022/12/17 19:28:52;;;;;;;105.43;30.63;;;;;;;-4.25;100.00;102482.75;5004730;28;20032;-78
2022/12/17 19:31:20;;;;;;;105.40;29.35;;;;;;;-4.22;100.00;102479.19;5001383;28;20038;-78
2022/12/17 19:33:52;;;;;;;105.57;31.70;;;;;;;-4.28;100.00;102495.16;4974426;28;20032;-78
2022/12/17 19:36:19;;;;;;;97.72;28.55;;;;;;;-4.32;100.00;102494.25;4995764;28;20058;-78
2022/12/17 19:38:45;;;;;;;102.10;29.15;;;;;;;-4.20;100.00;102489.91;4979849;28;20038;-78
2022/12/17 19:41:16;;;;;;;91.20;26.88;;;;;;;-4.27;100.00;102491.63;4995717;28;20101;-78
2022/12/17 19:43:42;;;;;;;115.65;29.70;;;;;;;-4.30;100.00;102492.47;4996630;28;20039;-77
2022/12/17 19:46:11;;;;;;;113.35;28.50;;;;;;;-4.27;100.00;102481.81;4975829;28;20481;-77
2022/12/17 19:48:38;;;;;;;118.75;29.80;;;;;;;-4.23;100.00;102488.13;4981098;28;20390;-78
2022/12/17 19:51:04;;;;;;;108.28;31.73;;;;;;;-4.29;100.00;102496.97;4996941;28;20034;-78
2022/12/17 19:53:32;;;;;;;123.18;33.03;;;;;;;-4.22;100.00;102492.56;5000622;28;20106;-78
2022/12/17 19:56:14;;;;;;;110.38;32.13;;;;;;;-4.15;100.00;102502.44;4997368;28;20092;-77
2022/12/17 19:58:40;;;;;;;113.15;32.25;;;;;;;-4.08;100.00;102498.94;4979137;28;20031;-78
2022/12/17 20:01:08;;;;;;;125.05;32.80;;;;;;;-4.13;100.00;102499.75;4995065;28;20045;-78
2022/12/17 20:03:35;;;;;;;115.78;31.67;;;;;;;-4.13;100.00;102500.66;4994889;28;20348;-77
2022/12/17 20:06:00;;;;;;;114.55;31.00;;;;;;;-4.21;100.00;102499.72;4990207;28;20038;-78
2022/12/17 20:08:26;;;;;;;119.55;33.58;;;;;;;-4.27;100.00;102500.53;4994148;28;20058;-78
2022/12/17 20:10:51;;;;;;;112.15;31.65;;;;;;;-4.28;100.00;102508.53;4996798;28;20471;-79
2022/12/17 20:13:16;;;;;;;97.97;31.95;;;;;;;-4.32;100.00;102496.03;4995262;28;20198;-78
2022/12/17 20:15:42;;;;;;;104.05;29.67;;;;;;;-4.51;100.00;102493.19;4995010;28;20371;-78
2022/12/17 20:18:07;;;;;;;110.40;30.38;;;;;;;-4.38;100.00;102496.88;5002177;28;20053;-78
2022/12/17 20:20:32;;;;;;;108.53;29.63;;;;;;;-4.42;100.00;102505.75;4975824;28;20034;-78
2022/12/17 20:22:58;;;;;;;118.07;33.25;;;;;;;-4.36;100.00;102512.91;4993518;28;20039;-78
2022/12/17 20:25:23;;;;;;;115.20;33.13;;;;;;;-4.34;100.00;102506.72;5009966;28;20043;-78
2022/12/17 20:27:49;;;;;;;115.25;31.50;;;;;;;-4.36;100.00;102513.84;5009481;28;20042;-78
2022/12/17 20:30:14;;;;;;;111.75;30.48;;;;;;;-4.33;100.00;102515.63;4995958;28;20129;-77
2022/12/17 20:32:40;;;;;;;109.07;34.30;;;;;;;-4.32;100.00;102512.97;4997450;28;20034;-78
2022/12/17 20:35:06;;;;;;;127.25;33.53;;;;;;;-4.33;100.00;102524.56;4993719;28;20046;-78
2022/12/17 20:37:31;;;;;;;106.00;31.52;;;;;;;-4.38;100.00;102528.06;4989171;28;20573;-78
2022/12/17 20:39:57;;;;;;;121.88;31.45;;;;;;;-4.50;100.00;102512.81;4974809;28;20049;-78
2022/12/17 20:42:22;;;;;;;114.53;29.52;;;;;;;-4.47;100.00;102507.50;4965016;28;20521;-78
2022/12/17 20:44:47;;;;;;;108.88;29.77;;;;;;;-4.51;100.00;102516.34;4997035;28;20043;-78
2022/12/17 20:47:13;;;;;;;95.85;29.48;;;;;;;-4.54;100.00;102513.63;4979826;28;20478;-78
2022/12/17 20:49:38;;;;;;;93.03;28.10;;;;;;;-4.59;100.00;102508.25;4997813;28;20082;-78
2022/12/17 20:52:04;;;;;;;89.78;27.67;;;;;;;-4.71;100.00;102503.66;4995735;28;20051;-78
2022/12/17 20:54:30;;;;;;;104.90;30.75;;;;;;;-4.74;100.00;102497.41;4964442;28;20038;-77
2022/12/17 20:56:55;;;;;;;106.50;28.50;;;;;;;-4.74;100.00;102490.25;4975857;28;20042;-77
2022/12/17 20:59:21;;;;;;;116.20;30.88;;;;;;;-4.66;100.00;102496.59;4989885;28;20059;-77
2022/12/17 21:01:48;;;;;;;110.47;30.98;;;;;;;-4.69;100.00;102503.69;4979985;28;20074;-78
2022/12/17 21:04:14;;;;;;;111.97;32.45;;;;;;;-4.62;100.00;102501.09;4977110;28;20038;-77
2022/12/17 21:06:43;;;;;;;105.25;30.85;;;;;;;-4.62;100.00;102508.22;4973157;28;20038;-77
2022/12/17 21:09:09;;;;;;;102.35;30.88;;;;;;;-4.70;100.00;102504.59;4988103;28;20030;-78
2022/12/17 21:11:36;;;;;;;104.20;31.15;;;;;;;-4.63;100.00;102493.06;4993326;28;20101;-78
2022/12/17 21:14:05;;;;;;;134.88;34.78;;;;;;;-4.68;100.00;102478.75;4994569;28;20347;-78
2022/12/17 21:16:31;;;;;;;137.18;34.55;;;;;;;-4.69;100.00;102495.66;4993146;28;20034;-78
2022/12/17 21:18:59;;;;;;;112.93;34.33;;;;;;;-4.66;100.00;102501.03;4977847;28;20068;-78
2022/12/17 21:21:27;;;;;;;111.32;32.63;;;;;;;-4.76;100.00;102509.84;4991965;28;20026;-78
2022/12/17 21:23:54;;;;;;;120.18;31.65;;;;;;;-4.80;100.00;102504.47;4979271;28;20062;-78
2022/12/17 21:26:29;;;;;;;115.60;31.30;;;;;;;-4.89;100.00;102507.03;4995829;28;20636;-78
2022/12/17 21:28:55;;;;;;;109.32;30.67;;;;;;;-4.96;100.00;102507.84;5012467;28;20124;-78
2022/12/17 21:31:23;;;;;;;114.32;31.35;;;;;;;-4.91;100.00;102515.91;4994933;28;20081;-78
2022/12/17 21:33:51;;;;;;;101.00;32.20;;;;;;;-4.94;100.00;102518.53;4995739;28;20026;-78
2022/12/17 21:36:18;;;;;;;107.45;33.55;;;;;;;-4.95;100.00;102512.31;4998041;28;20050;-77
2022/12/17 21:38:44;;;;;;;94.80;31.33;;;;;;;-4.94;100.00;102519.44;4998733;28;20030;-78
2022/12/17 21:41:16;;;;;;;96.95;33.13;;;;;;;-4.91;100.00;102513.25;5004362;28;20396;-78
2022/12/17 21:43:41;;;;;;;99.65;31.42;;;;;;;-4.93;100.00;102523.03;4995026;28;20025;-78
2022/12/17 21:46:09;;;;;;;109.00;31.65;;;;;;;-5.09;100.00;102524.59;4993998;28;20042;-78
2022/12/17 21:48:38;;;;;;;98.65;30.33;;;;;;;-4.91;100.00;102532.81;4999837;28;20022;-78
2022/12/17 21:51:05;;;;;;;104.40;30.20;;;;;;;-4.97;100.00;102532.75;4970102;28;20038;-77
2022/12/17 21:53:32;;;;;;;102.82;27.90;;;;;;;-4.97;100.00;102538.09;4970174;28;20057;-78
2022/12/17 21:56:10;;;;;;;90.75;32.22;;;;;;;-4.97;100.00;102545.22;4987543;28;20034;-78
2022/12/17 21:58:36;;;;;;;104.70;32.25;;;;;;;-5.05;100.00;102530.00;4992334;28;20027;-78
2022/12/17 22:01:13;;;;;;;111.35;31.75;;;;;;;-5.02;100.00;102530.03;4994509;28;20453;-78
2022/12/17 22:03:38;;;;;;;109.28;29.83;;;;;;;-4.91;100.00;102539.94;4979586;28;20030;-78
2022/12/17 22:06:10;;;;;;;111.65;32.97;;;;;;;-4.96;100.00;102539.00;4977800;28;20490;-78
2022/12/17 22:08:37;;;;;;;95.85;31.55;;;;;;;-5.00;100.00;102546.06;5006057;28;20083;-78
2022/12/17 22:11:07;;;;;;;107.55;32.22;;;;;;;-5.04;100.00;102546.91;4989919;28;20034;-78
2022/12/17 22:16:17;;;;;;;94.35;30.77;;;;;;;-5.07;100.00;102547.75;4980926;28;20492;-79
2022/12/17 22:18:42;;;;;;;109.65;32.50;;;;;;;-5.06;100.00;102551.34;4991976;28;20035;-78
2022/12/17 22:21:08;;;;;;;97.55;30.38;;;;;;;-5.03;100.00;102546.94;4978230;28;20046;-79
2022/12/17 22:23:33;;;;;;;94.57;30.08;;;;;;;-5.01;100.00;102537.16;4981238;28;20371;-78
2022/12/17 22:25:59;;;;;;;90.50;29.73;;;;;;;-5.05;100.00;102545.09;4963203;28;20046;-78
2022/12/17 22:28:24;;;;;;;102.28;30.42;;;;;;;-5.06;100.00;102543.34;4965154;28;20129;-78
2022/12/17 22:33:33;;;;;;;112.45;30.48;;;;;;;-5.04;100.00;102534.44;4992604;28;20044;-77
2022/12/17 22:36:03;;;;;;;95.15;29.92;;;;;;;-4.97;100.00;102537.19;4996081;28;20139;-77
2022/12/17 22:38:28;;;;;;;84.57;27.42;;;;;;;-5.01;100.00;102544.28;4983643;28;20034;-77
2022/12/17 22:40:54;;;;;;;92.57;31.02;;;;;;;-5.05;100.00;102543.34;4989966;28;20428;-77
2022/12/17 22:43:28;;;;;;;101.88;32.25;;;;;;;-5.03;100.00;102543.38;4993170;28;20054;-77
2022/12/17 22:46:01;;;;;;;101.53;30.88;;;;;;;-5.06;100.00;102546.88;4996954;28;20038;-78
2022/12/17 22:48:26;;;;;;;95.63;32.10;;;;;;;-5.04;100.00;102533.56;5001400;28;20065;-78
2022/12/17 22:50:52;;;;;;;104.18;30.83;;;;;;;-5.08;100.00;102532.63;4963227;28;20038;-77
2022/12/17 22:53:17;;;;;;;89.57;31.08;;;;;;;-4.96;100.00;102541.69;4994251;28;20093;-77
2022/12/17 22:55:42;;;;;;;102.75;34.17;;;;;;;-4.93;100.00;102542.59;4988438;28;20117;-78
2022/12/17 22:58:08;;;;;;;105.28;32.70;;;;;;;-5.01;100.00;102525.59;5000352;28;20119;-78
2022/12/17 23:00:35;;;;;;;92.95;29.48;;;;;;;-5.01;100.00;102536.28;4991807;28;20039;-77
2022/12/17 23:03:01;;;;;;;100.68;33.35;;;;;;;-5.05;100.00;102537.09;4997176;28;20041;-78
2022/12/17 23:05:27;;;;;;;90.43;32.60;;;;;;;-5.08;100.00;102529.97;4989860;28;20038;-77
2022/12/17 23:07:54;;;;;;;102.47;32.92;;;;;;;-5.17;100.00;102521.81;4983005;28;20035;-78
2022/12/17 23:10:23;;;;;;;108.45;32.30;;;;;;;-5.13;100.00;102520.06;4996894;28;20034;-77
2022/12/17 23:12:53;;;;;;;88.72;30.10;;;;;;;-5.22;100.00;102532.44;4983490;28;20135;-78
2022/12/17 23:15:32;;;;;;;97.43;32.53;;;;;;;-5.26;100.00;102535.06;4995392;28;20049;-78
2022/12/17 23:18:01;;;;;;;87.28;30.33;;;;;;;-5.29;100.00;102519.88;4998013;28;20090;-78
2022/12/17 23:20:28;;;;;;;87.75;30.60;;;;;;;-5.26;100.00;102522.59;4982178;28;20404;-78
2022/12/17 23:22:54;;;;;;;82.50;29.38;;;;;;;-5.36;100.00;102516.25;4999027;28;20080;-77
2022/12/17 23:25:21;;;;;;;90.20;29.02;;;;;;;-5.38;100.00;102514.41;4993256;28;20046;-78
2022/12/17 23:27:46;;;;;;;88.78;30.17;;;;;;;-5.31;100.00;102516.31;4976051;28;20440;-77
2022/12/17 23:30:14;;;;;;;87.60;30.77;;;;;;;-5.36;100.00;102518.03;4975577;28;20493;-77
2022/12/17 23:32:39;;;;;;;94.05;29.20;;;;;;;-5.42;100.00;102516.16;4994356;28;20034;-78
2022/12/17 23:35:07;;;;;;;79.25;28.73;;;;;;;-5.55;100.00;102523.09;4998438;28;20129;-77
2022/12/17 23:37:32;;;;;;;88.03;28.85;;;;;;;-5.64;100.00;102525.63;4996720;28;20042;-79
2022/12/17 23:39:57;;;;;;;75.72;27.98;;;;;;;-5.72;100.00;102530.84;4981385;28;20037;-78
2022/12/17 23:42:23;;;;;;;80.65;28.40;;;;;;;-5.61;100.00;102530.09;4952725;28;20058;-78
2022/12/17 23:44:48;;;;;;;83.38;28.15;;;;;;;-5.78;100.00;102533.41;4978019;28;20522;-78
2022/12/17 23:47:14;;;;;;;81.53;28.50;;;;;;;-5.79;100.00;102539.63;4996300;28;20564;-79
2022/12/17 23:49:39;;;;;;;83.13;28.75;;;;;;;-5.86;100.00;102532.41;4992087;28;20039;-78
2022/12/17 23:52:05;;;;;;;81.10;28.17;;;;;;;-6.03;100.00;102531.25;4990834;28;20371;-78
2022/12/17 23:54:30;;;;;;;84.32;28.98;;;;;;;-5.78;100.00;102537.84;4982281;28;20082;-78
2022/12/17 23:56:56;;;;;;;90.07;27.55;;;;;;;-5.82;100.00;102522.66;4998031;28;20053;-78
2022/12/17 23:59:21;;;;;;;89.05;28.55;;;;;;;-5.77;100.00;102531.63;4997236;28;20417;-79
